createdAt,value
2019-01-27T00:03:10.460Z,3.43
2019-01-27T00:13:15.607Z,3.20
2019-01-27T00:23:20.743Z,3.77
2019-01-27T00:33:25.915Z,3.20
2019-01-27T00:43:31.140Z,3.30
2019-01-27T00:53:36.314Z,3.37
2019-01-27T01:03:41.533Z,3.83
2019-01-27T01:13:46.681Z,3.63
2019-01-27T01:23:51.824Z,3.13
2019-01-27T01:33:57.046Z,3.40
2019-01-27T01:44:02.310Z,3.10
2019-01-27T01:54:07.460Z,3.40
2019-01-27T04:00:57.244Z,2.90
2019-01-27T04:11:02.398Z,3.13
2019-01-27T04:21:07.572Z,3.47
2019-01-27T04:31:12.738Z,3.13
2019-01-27T04:41:17.874Z,3.27
2019-01-27T04:51:23.013Z,2.57
2019-01-27T05:01:28.154Z,2.93
2019-01-27T05:11:33.302Z,3.20
2019-01-27T05:21:38.438Z,2.30
2019-01-27T05:31:43.620Z,3.23
2019-01-27T05:41:48.752Z,2.60
2019-01-27T05:51:53.931Z,2.73
2019-01-27T06:01:59.066Z,2.47
2019-01-27T06:12:04.223Z,3.00
2019-01-27T06:22:09.353Z,3.10
2019-01-27T06:32:26.004Z,2.67
2019-01-27T06:42:31.165Z,2.63
2019-01-27T06:52:36.306Z,2.43
2019-01-27T07:02:52.816Z,2.50
2019-01-27T07:13:15.802Z,2.57
2019-01-27T07:23:46.204Z,3.03
2019-01-27T07:34:10.326Z,2.70
2019-01-27T07:44:30.039Z,2.33
2019-01-27T07:54:54.621Z,2.50
2019-01-27T08:05:06.848Z,2.70
2019-01-27T08:15:25.139Z,2.73
2019-01-27T08:25:44.657Z,2.27
2019-01-27T08:36:08.777Z,2.40
2019-01-27T08:46:21.042Z,2.33
2019-01-27T08:56:26.195Z,2.67
2019-01-27T09:07:05.724Z,1.87
2019-01-27T09:17:31.034Z,2.10
2019-01-27T09:27:42.045Z,2.40
2019-01-27T09:38:13.052Z,2.23
2019-01-27T09:48:37.035Z,1.93
2019-01-27T09:59:10.381Z,2.47
2019-01-27T10:09:44.074Z,2.30
2019-01-27T10:20:13.881Z,2.83
2019-01-27T10:30:39.764Z,2.63
2019-01-27T10:40:53.334Z,2.57
2019-01-27T10:51:20.742Z,1.87
2019-01-27T11:01:37.315Z,2.53
2019-01-27T11:12:05.515Z,2.47
2019-01-27T11:22:30.693Z,3.50
2019-01-27T11:32:47.750Z,2.53
2019-01-27T11:43:13.186Z,2.47
2019-01-27T11:53:19.783Z,2.30
2019-01-27T12:03:26.974Z,2.07
2019-01-27T12:13:33.559Z,2.17
2019-01-27T12:23:40.558Z,1.93
2019-01-27T12:33:47.743Z,1.73
2019-01-27T12:43:54.338Z,1.90
2019-01-27T12:54:02.271Z,2.07
2019-01-27T13:04:09.447Z,1.87
2019-01-27T13:14:17.670Z,2.13
2019-01-27T13:24:25.278Z,1.90
2019-01-27T13:34:33.628Z,1.73
2019-01-27T13:44:40.646Z,1.97
2019-01-27T13:54:48.588Z,1.70
2019-01-27T14:04:55.244Z,1.70
2019-01-27T14:15:01.191Z,1.77
2019-01-27T14:25:08.951Z,1.90
2019-01-27T14:35:15.316Z,1.70
2019-01-27T14:45:23.407Z,1.70
2019-01-27T14:55:30.779Z,1.80
2019-01-27T15:05:36.963Z,1.83
2019-01-27T15:15:43.669Z,1.70
2019-01-27T15:25:51.191Z,1.57
2019-01-27T15:35:57.968Z,1.80
2019-01-27T15:46:05.068Z,1.70
2019-01-27T15:56:12.159Z,1.50
2019-01-27T16:06:19.387Z,2.30
2019-01-27T16:16:26.453Z,1.87
2019-01-27T16:26:34.659Z,2.10
2019-01-27T16:36:42.045Z,1.90
2019-01-27T16:46:49.756Z,1.70
2019-01-27T16:56:57.866Z,1.80
2019-01-27T17:07:05.278Z,2.00
2019-01-27T17:17:14.059Z,2.13
2019-01-27T17:27:22.626Z,1.90
2019-01-27T17:37:30.573Z,2.10
2019-01-27T17:47:37.825Z,2.00
2019-01-27T17:57:58.768Z,2.30
2019-01-27T18:08:13.331Z,2.60
2019-01-27T18:18:21.873Z,1.80
2019-01-27T18:28:31.347Z,2.03
2019-01-27T18:38:38.925Z,1.70
2019-01-27T18:48:49.349Z,1.83
2019-01-27T18:59:24.324Z,2.07
2019-01-27T19:09:39.401Z,1.93
2019-01-27T19:20:07.363Z,2.10
2019-01-27T19:30:29.412Z,1.73
2019-01-27T19:40:48.430Z,2.00
2019-01-27T19:51:19.564Z,2.67
2019-01-27T20:01:38.610Z,1.67
2019-01-27T20:11:58.579Z,1.93
2019-01-27T20:22:22.822Z,2.30
2019-01-27T20:32:57.485Z,2.00
2019-01-27T20:43:23.863Z,1.60
2019-01-27T20:53:41.645Z,2.10
2019-01-27T21:04:08.642Z,1.80
2019-01-27T21:14:25.148Z,1.73
2019-01-27T21:24:36.513Z,2.63
2019-01-27T21:34:44.699Z,2.00
2019-01-27T21:44:50.875Z,1.80
2019-01-27T21:54:57.614Z,1.80
2019-01-27T22:05:03.217Z,1.47
2019-01-27T22:15:08.919Z,1.50
2019-01-27T22:25:15.208Z,1.67
2019-01-27T22:35:21.289Z,1.73
2019-01-27T22:45:26.491Z,1.77
2019-01-27T22:55:31.647Z,2.03
2019-01-27T23:05:37.174Z,1.90
2019-01-27T23:15:42.671Z,1.60
2019-01-27T23:25:47.809Z,1.60
2019-01-27T23:35:52.982Z,1.73
2019-01-27T23:45:58.132Z,1.60
2019-01-27T23:56:03.280Z,2.07
